Time;durP1;ratioP1;P1;durP2;ratioP2;P2;SDS_P1;SDS_P2;PMS_P1;PMS_P2;Temp;Humidity;BMP_temperature;BMP_pressure;BME280_temperature;BME280_humidity;BME280_pressure;Samples;Min_cycle;Max_cycle;Signal;HPM_P1;HPM_P2
2021/04/25 00:01:57;;;;;;;1.55;1.45;;;;;;;19.24;33.47;96285.84;5026658;28;20594;-62
2021/04/25 00:04:23;;;;;;;1.55;1.52;;;;;;;19.24;33.53;96290.44;5028207;28;20065;-62
2021/04/25 00:06:49;;;;;;;1.80;1.70;;;;;;;19.22;33.68;96290.75;5028439;28;20883;-61
2021/04/25 00:09:15;;;;;;;1.63;1.52;;;;;;;19.22;33.59;96285.31;5026883;28;20056;-61
2021/04/25 00:11:40;;;;;;;1.75;1.65;;;;;;;19.22;33.50;96285.31;5026406;28;20054;-61
2021/04/25 00:14:07;;;;;;;1.85;1.75;;;;;;;19.21;33.44;96283.69;5028021;28;20400;-63
2021/04/25 00:16:32;;;;;;;1.80;1.70;;;;;;;19.21;33.58;96282.88;5030439;28;20088;-61
2021/04/25 00:18:58;;;;;;;1.83;1.70;;;;;;;19.19;33.70;96288.56;5010845;28;20092;-61
2021/04/25 00:21:25;;;;;;;2.00;1.90;;;;;;;19.19;33.56;96277.72;5027802;28;20076;-61
2021/04/25 00:23:51;;;;;;;1.45;1.45;;;;;;;19.18;33.47;96277.97;5026320;28;20086;-60
2021/04/25 00:26:17;;;;;;;1.88;1.60;;;;;;;19.17;33.48;96277.19;5026377;28;20112;-61
2021/04/25 00:28:43;;;;;;;2.00;1.85;;;;;;;19.18;33.42;96281.53;5026322;28;20053;-61
2021/04/25 00:31:08;;;;;;;1.38;1.38;;;;;;;19.15;33.63;96276.63;4994102;28;20138;-60
2021/04/25 00:33:34;;;;;;;1.48;1.48;;;;;;;19.15;33.70;96276.63;5011255;28;20103;-62
2021/04/25 00:36:00;;;;;;;1.60;1.52;;;;;;;19.15;33.64;96273.13;5028083;28;20095;-62
2021/04/25 00:38:25;;;;;;;1.70;1.60;;;;;;;19.14;33.58;96276.94;5030332;28;20496;-61
2021/04/25 00:40:51;;;;;;;2.05;1.77;;;;;;;19.13;33.82;96273.38;5025473;28;20045;-61
2021/04/25 00:43:16;;;;;;;1.95;1.60;;;;;;;19.12;33.98;96274.50;5030256;28;20084;-62
2021/04/25 00:45:42;;;;;;;2.10;1.63;;;;;;;19.12;33.50;96273.69;5047165;28;20095;-61
2021/04/25 00:48:07;;;;;;;1.90;1.80;;;;;;;19.11;33.49;96275.56;5047211;28;20077;-61
2021/04/25 00:50:33;;;;;;;1.50;1.48;;;;;;;19.10;33.87;96276.66;5047214;28;20049;-62
2021/04/25 00:52:59;;;;;;;1.90;1.80;;;;;;;19.10;33.80;96276.66;5045261;28;20093;-61
2021/04/25 00:55:25;;;;;;;1.70;1.60;;;;;;;19.09;33.91;96275.03;5045272;28;20072;-61
2021/04/25 00:57:52;;;;;;;1.63;1.63;;;;;;;19.07;33.51;96274.50;5046733;28;20048;-61
2021/04/25 01:00:18;;;;;;;1.80;1.70;;;;;;;19.07;33.73;96277.19;5028471;28;20389;-63
2021/04/25 01:02:43;;;;;;;1.85;1.75;;;;;;;19.07;33.69;96273.69;5045994;28;20191;-61
2021/04/25 01:05:11;;;;;;;1.70;1.60;;;;;;;19.05;33.74;96273.94;5045354;28;20080;-61
2021/04/25 01:07:37;;;;;;;1.83;1.73;;;;;;;19.04;33.73;96267.72;5044016;28;20052;-62
2021/04/25 01:10:03;;;;;;;1.42;1.33;;;;;;;19.03;33.61;96271.53;5045373;28;20041;-62
2021/04/25 01:12:29;;;;;;;1.70;1.60;;;;;;;19.03;33.71;96273.41;5045442;28;20091;-61
2021/04/25 01:14:54;;;;;;;1.50;1.50;;;;;;;19.04;33.73;96269.63;5029143;28;20076;-61
2021/04/25 01:17:20;;;;;;;1.58;1.48;;;;;;;19.02;33.68;96264.47;5050530;28;20041;-61
2021/04/25 01:19:46;;;;;;;1.88;1.70;;;;;;;19.01;33.77;96267.44;5045479;28;20099;-61
2021/04/25 01:22:11;;;;;;;1.50;1.50;;;;;;;19.01;33.68;96262.84;5045660;28;20057;-59
2021/04/25 01:24:37;;;;;;;1.60;1.60;;;;;;;19.01;34.01;96262.03;5045949;28;20155;-62
2021/04/25 01:27:03;;;;;;;1.70;1.60;;;;;;;19.00;34.10;96265.84;5046012;28;20053;-61
2021/04/25 01:29:28;;;;;;;1.77;1.67;;;;;;;18.99;33.58;96265.03;5045062;28;20766;-61
2021/04/25 01:31:54;;;;;;;1.50;1.40;;;;;;;18.97;33.87;96253.63;5045632;28;20068;-60
2021/04/25 01:34:19;;;;;;;1.60;1.50;;;;;;;18.97;33.87;96259.06;5046278;28;20439;-61
2021/04/25 01:36:45;;;;;;;1.77;1.67;;;;;;;18.98;33.84;96262.59;5042679;28;20142;-61
2021/04/25 01:39:11;;;;;;;1.80;1.80;;;;;;;18.96;33.62;96264.75;5044589;28;20378;-60
2021/04/25 01:41:37;;;;;;;1.40;1.40;;;;;;;18.96;33.66;96254.72;5045678;28;20041;-61
2021/04/25 01:44:03;;;;;;;1.73;1.63;;;;;;;18.96;33.51;96253.91;5038145;28;20515;-61
2021/04/25 01:46:29;;;;;;;1.60;1.60;;;;;;;18.92;33.82;96250.94;5009380;28;20097;-62
2021/04/25 01:48:54;;;;;;;1.70;1.60;;;;;;;18.93;33.72;96257.16;5009043;28;20053;-60
2021/04/25 01:51:20;;;;;;;1.73;1.63;;;;;;;18.92;33.95;96255.53;5024796;28;20057;-61
2021/04/25 01:53:45;;;;;;;1.60;1.50;;;;;;;18.91;33.64;96257.47;5025654;28;20057;-61
2021/04/25 01:56:11;;;;;;;1.90;1.80;;;;;;;18.91;33.79;96251.19;5025124;28;20049;-61
2021/04/25 01:58:37;;;;;;;1.42;1.42;;;;;;;18.90;33.57;96250.38;5026124;28;20091;-61
2021/04/25 02:01:03;;;;;;;2.55;1.58;;;;;;;18.90;33.84;96255.00;5026258;28;20049;-61
2021/04/25 02:03:29;;;;;;;1.75;1.75;;;;;;;18.89;33.98;96254.19;5009222;28;20055;-61
2021/04/25 02:05:54;;;;;;;1.75;1.65;;;;;;;18.87;33.88;96245.53;5025141;28;20057;-61
2021/04/25 02:08:20;;;;;;;1.58;1.52;;;;;;;18.87;33.86;96244.72;5025535;28;20085;-61
2021/04/25 02:10:46;;;;;;;1.45;1.45;;;;;;;18.86;33.81;96249.31;5026766;28;20477;-61
2021/04/25 02:13:12;;;;;;;1.73;1.63;;;;;;;18.85;33.86;96247.69;5025214;28;20053;-61
2021/04/25 02:15:38;;;;;;;1.60;1.60;;;;;;;18.84;33.69;96243.34;5008500;28;20397;-61
2021/04/25 02:18:03;;;;;;;1.50;1.50;;;;;;;18.83;33.67;96242.53;5012143;28;20052;-63
2021/04/25 02:20:29;;;;;;;1.40;1.40;;;;;;;18.83;33.77;96239.84;5023974;28;20531;-61
2021/04/25 02:22:55;;;;;;;1.90;1.80;;;;;;;18.82;34.29;96242.81;5023614;28;20127;-61
2021/04/25 02:25:21;;;;;;;1.67;1.60;;;;;;;18.82;34.19;96237.38;5008466;28;20107;-61
2021/04/25 02:27:46;;;;;;;1.67;1.58;;;;;;;18.80;34.12;96234.97;5025946;28;20663;-61
2021/04/25 02:30:15;;;;;;;1.40;1.40;;;;;;;18.81;33.97;96227.63;5025112;28;20041;-60
2021/04/25 02:32:40;;;;;;;1.92;1.70;;;;;;;18.79;34.36;96238.75;5026009;28;20611;-61
2021/04/25 02:35:08;;;;;;;1.85;1.75;;;;;;;18.79;34.27;96230.63;5025401;28;20049;-61
2021/04/25 02:37:33;;;;;;;1.58;1.50;;;;;;;18.79;34.11;96233.31;4992556;28;20049;-61
2021/04/25 02:39:59;;;;;;;1.58;1.50;;;;;;;18.79;34.33;96224.38;5023945;28;20148;-62
2021/04/25 02:42:24;;;;;;;1.70;1.70;;;;;;;18.76;34.28;96233.84;5025086;28;20069;-62
2021/04/25 02:44:50;;;;;;;1.65;1.65;;;;;;;18.76;34.35;96233.03;5023773;28;20080;-61
2021/04/25 02:47:15;;;;;;;1.92;1.83;;;;;;;18.75;34.06;96228.69;5044171;28;20084;-62
2021/04/25 02:49:41;;;;;;;1.83;1.73;;;;;;;18.74;34.26;96227.91;5043374;28;20090;-62
2021/04/25 02:52:07;;;;;;;1.85;1.60;;;;;;;18.74;34.51;96224.34;5044758;28;20068;-61
2021/04/25 02:54:33;;;;;;;1.60;1.50;;;;;;;18.73;34.15;96225.44;5044052;28;20041;-62
2021/04/25 02:56:59;;;;;;;1.80;1.70;;;;;;;18.72;34.31;96223.81;5044048;28;20045;-60
2021/04/25 02:59:24;;;;;;;1.50;1.50;;;;;;;18.70;34.16;96220.56;5045324;28;20052;-62
2021/04/25 03:01:50;;;;;;;1.63;1.60;;;;;;;18.70;34.42;96221.41;5045196;28;20041;-61
2021/04/25 03:04:15;;;;;;;1.42;1.42;;;;;;;18.69;34.31;96214.31;5044647;28;20051;-61
2021/04/25 03:06:41;;;;;;;1.80;1.70;;;;;;;18.69;34.26;96218.94;5044604;28;20090;-61
2021/04/25 03:09:07;;;;;;;1.50;1.50;;;;;;;18.68;34.09;96215.44;5045977;28;20909;-61
2021/04/25 03:11:32;;;;;;;2.00;1.80;;;;;;;18.67;34.41;96218.41;5043446;28;20072;-61
2021/04/25 03:13:58;;;;;;;1.80;1.70;;;;;;;18.67;34.30;96212.97;5043855;28;20506;-62
2021/04/25 03:16:24;;;;;;;1.58;1.48;;;;;;;18.67;34.42;96218.41;5043929;28;20040;-62
2021/04/25 03:18:50;;;;;;;1.70;1.60;;;;;;;18.65;34.26;96213.25;5046625;28;20040;-62
2021/04/25 03:21:16;;;;;;;1.58;1.48;;;;;;;18.64;34.09;96217.06;5043744;28;20688;-61
2021/04/25 03:23:41;;;;;;;1.58;1.55;;;;;;;18.60;33.99;96208.66;5042762;28;20503;-61
2021/04/25 03:26:07;;;;;;;1.77;1.67;;;;;;;18.63;34.04;96207.28;5043082;28;20056;-61
2021/04/25 03:28:33;;;;;;;1.48;1.38;;;;;;;18.62;34.44;96208.38;5042937;28;20056;-61
2021/04/25 03:30:59;;;;;;;1.40;1.40;;;;;;;18.63;34.05;96208.13;5043196;28;20053;-61
2021/04/25 03:33:24;;;;;;;1.70;1.60;;;;;;;18.61;34.15;96196.75;5042098;28;20118;-61
2021/04/25 03:35:50;;;;;;;1.70;1.60;;;;;;;18.62;34.33;96202.97;5046539;28;20041;-61
2021/04/25 03:38:16;;;;;;;1.42;1.40;;;;;;;18.62;34.07;96202.97;5047339;28;20044;-61
2021/04/25 03:40:41;;;;;;;1.60;1.60;;;;;;;18.60;33.94;96197.81;5045952;28;20504;-60
2021/04/25 03:43:07;;;;;;;1.48;1.48;;;;;;;18.59;34.39;96201.63;5045997;28;20117;-61
2021/04/25 03:45:33;;;;;;;1.63;1.52;;;;;;;18.60;34.38;96203.22;5026146;28;20055;-60
2021/04/25 03:47:58;;;;;;;1.35;1.35;;;;;;;18.58;34.16;96199.97;5026404;28;20085;-61
2021/04/25 03:50:24;;;;;;;1.70;1.60;;;;;;;18.58;34.36;96205.41;5028373;28;20104;-61
2021/04/25 03:52:50;;;;;;;1.60;1.50;;;;;;;18.58;34.33;96207.31;5011589;28;20049;-61
2021/04/25 03:55:16;;;;;;;1.45;1.45;;;;;;;18.57;34.50;96206.50;5027737;28;20041;-61
2021/04/25 03:57:42;;;;;;;1.35;1.35;;;;;;;18.56;34.25;96204.88;5039063;28;20057;-62
2021/04/25 04:00:09;;;;;;;1.50;1.50;;;;;;;18.56;34.01;96204.88;5031383;28;20057;-61
2021/04/25 04:02:35;;;;;;;1.40;1.40;;;;;;;18.56;34.12;96204.88;5047720;28;20045;-61
2021/04/25 04:05:01;;;;;;;1.60;1.50;;;;;;;18.55;33.95;96195.13;5047809;28;20136;-61
2021/04/25 04:07:26;;;;;;;1.55;1.48;;;;;;;18.54;34.01;96196.19;5047606;28;20088;-61
2021/04/25 04:09:52;;;;;;;1.55;1.45;;;;;;;18.54;34.37;96192.69;5047757;28;20041;-61
2021/04/25 04:12:18;;;;;;;1.40;1.40;;;;;;;18.53;34.05;96189.16;5048430;28;20079;-61
2021/04/25 04:14:44;;;;;;;1.83;1.73;;;;;;;18.54;34.13;96181.81;5030186;28;20073;-61
2021/04/25 04:17:10;;;;;;;1.63;1.52;;;;;;;18.53;34.14;96185.63;5047955;28;20425;-62
2021/04/25 04:19:35;;;;;;;1.80;1.70;;;;;;;18.52;34.41;96187.53;5050366;28;20045;-59
2021/04/25 04:22:01;;;;;;;1.70;1.60;;;;;;;18.51;34.36;96185.91;5047444;28;20411;-60
2021/04/25 04:24:27;;;;;;;1.38;1.35;;;;;;;18.50;34.42;96186.97;5028827;28;20131;-61
2021/04/25 04:26:52;;;;;;;1.55;1.45;;;;;;;18.50;34.39;96181.56;5037169;28;20140;-61
2021/04/25 04:29:18;;;;;;;1.63;1.52;;;;;;;18.50;34.00;96186.97;5046345;28;20077;-61
2021/04/25 04:31:43;;;;;;;1.35;1.35;;;;;;;18.50;34.26;96181.56;5043667;28;20674;-61
2021/04/25 04:34:09;;;;;;;1.48;1.48;;;;;;;18.48;34.14;96178.31;5047581;28;20072;-61
2021/04/25 04:36:35;;;;;;;1.38;1.38;;;;;;;18.47;33.98;96171.28;5047314;28;20078;-61
2021/04/25 04:39:00;;;;;;;1.55;1.50;;;;;;;18.48;34.11;96174.78;5047572;28;20087;-62
2021/04/25 04:41:26;;;;;;;1.48;1.48;;;;;;;18.46;34.13;96180.47;5047655;28;20040;-60
2021/04/25 04:43:53;;;;;;;1.70;1.60;;;;;;;18.46;34.33;96179.69;5040173;28;20045;-60
2021/04/25 04:46:19;;;;;;;1.50;1.50;;;;;;;18.46;34.33;96176.97;5025325;28;20061;-61
2021/04/25 04:48:44;;;;;;;1.60;1.52;;;;;;;18.46;34.30;96180.47;5026365;28;20519;-61
2021/04/25 04:51:10;;;;;;;1.50;1.40;;;;;;;18.44;34.12;96180.75;5027388;28;20041;-62
2021/04/25 04:53:36;;;;;;;1.60;1.50;;;;;;;18.44;34.34;96178.03;5026361;28;20421;-61
2021/04/25 04:56:01;;;;;;;1.55;1.55;;;;;;;18.42;34.11;96168.56;5026962;28;20556;-61
2021/04/25 04:58:27;;;;;;;1.77;1.75;;;;;;;18.42;34.00;96177.50;5025753;28;20064;-60
2021/04/25 05:00:52;;;;;;;1.50;1.50;;;;;;;18.41;34.11;96175.09;5025577;28;20132;-61
2021/04/25 05:03:18;;;;;;;1.42;1.42;;;;;;;18.41;34.06;96177.78;5026220;28;20501;-61
2021/04/25 05:05:44;;;;;;;1.40;1.40;;;;;;;18.41;34.09;96175.09;5025692;28;20136;-60
2021/04/25 05:08:09;;;;;;;1.75;1.70;;;;;;;18.40;34.31;96173.44;5026921;28;20420;-61
2021/04/25 05:10:35;;;;;;;1.65;1.55;;;;;;;18.40;34.21;96173.44;5025268;28;20072;-60
2021/04/25 05:13:00;;;;;;;1.20;1.20;;;;;;;18.39;34.38;96172.63;5025010;28;20403;-61
2021/04/25 05:15:26;;;;;;;1.50;1.50;;;;;;;18.38;34.04;96172.91;5024683;28;20760;-61
2021/04/25 05:17:51;;;;;;;1.70;1.60;;;;;;;18.38;33.97;96178.31;5007116;28;20114;-61
2021/04/25 05:20:17;;;;;;;1.50;1.50;;;;;;;18.37;34.10;96168.59;5026037;28;20053;-62
2021/04/25 05:22:43;;;;;;;1.55;1.45;;;;;;;18.36;34.22;96166.94;5026170;28;20460;-62
2021/04/25 05:25:08;;;;;;;1.77;1.40;;;;;;;18.36;34.24;96169.66;5026423;28;20081;-60
2021/04/25 05:27:34;;;;;;;1.92;1.83;;;;;;;18.33;34.44;96157.47;5024375;28;20187;-60
2021/04/25 05:30:00;;;;;;;1.50;1.50;;;;;;;18.34;34.45;96155.56;5008036;28;20521;-61
2021/04/25 05:32:25;;;;;;;1.50;1.50;;;;;;;18.34;34.17;96159.09;5024400;28;20568;-61
2021/04/25 05:34:51;;;;;;;1.63;1.52;;;;;;;18.33;34.32;96159.38;5025663;28;20076;-60
2021/04/25 05:37:16;;;;;;;1.20;1.20;;;;;;;18.32;34.44;96160.44;5025449;28;20088;-61
2021/04/25 05:39:42;;;;;;;1.30;1.30;;;;;;;18.32;34.44;96163.16;5024147;28;20535;-60
2021/04/25 05:42:08;;;;;;;1.55;1.45;;;;;;;18.32;34.12;96160.44;5024875;28;20088;-61
2021/04/25 05:44:33;;;;;;;1.42;1.42;;;;;;;18.32;34.07;96164.00;5036629;28;20148;-61
2021/04/25 05:46:59;;;;;;;1.50;1.50;;;;;;;18.30;34.28;96163.44;5045213;28;20681;-61
2021/04/25 05:49:24;;;;;;;1.60;1.60;;;;;;;18.29;34.42;96161.81;5044292;28;20080;-60
2021/04/25 05:51:50;;;;;;;1.73;1.63;;;;;;;18.29;34.38;96163.72;5044056;28;20084;-61
2021/04/25 05:54:16;;;;;;;1.30;1.30;;;;;;;18.28;33.92;96162.06;5044018;28;20053;-60
2021/04/25 05:56:41;;;;;;;1.35;1.35;;;;;;;18.28;34.45;96168.34;5043151;28;20592;-61
2021/04/25 05:59:07;;;;;;;1.40;1.40;;;;;;;18.27;34.20;96174.81;5045559;28;20048;-60
2021/04/25 06:01:33;;;;;;;1.35;1.35;;;;;;;18.28;34.52;96178.34;5026967;28;20095;-64
2021/04/25 06:03:58;;;;;;;1.58;1.50;;;;;;;18.27;34.29;96182.16;5041371;28;20067;-61
2021/04/25 06:06:24;;;;;;;1.40;1.30;;;;;;;18.27;34.67;96177.53;5028215;28;20052;-60
2021/04/25 06:08:50;;;;;;;1.80;1.70;;;;;;;18.25;34.25;96178.91;5044914;28;20140;-61
2021/04/25 06:11:15;;;;;;;1.90;1.80;;;;;;;18.25;34.54;96168.06;5044228;28;20056;-61
2021/04/25 06:13:42;;;;;;;1.40;1.40;;;;;;;18.24;34.46;96172.69;5044254;28;20607;-61
2021/04/25 06:16:07;;;;;;;1.48;1.40;;;;;;;18.24;34.82;96169.97;5045506;28;20099;-61
2021/04/25 06:18:33;;;;;;;1.40;1.40;;;;;;;18.24;34.46;96178.09;5044500;28;20158;-61
2021/04/25 06:20:58;;;;;;;1.20;1.20;;;;;;;18.25;34.93;96178.91;5043604;28;20049;-61
2021/04/25 06:23:24;;;;;;;1.45;1.45;;;;;;;18.25;34.65;96182.41;5044877;28;20099;-61
2021/04/25 06:25:50;;;;;;;1.42;1.42;;;;;;;18.27;35.21;96184.88;5043590;28;20060;-62
2021/04/25 06:28:15;;;;;;;1.88;1.80;;;;;;;18.27;35.21;96187.56;5026081;28;20133;-61
2021/04/25 06:30:41;;;;;;;1.50;1.40;;;;;;;18.27;34.97;96182.16;5043907;28;20212;-62
2021/04/25 06:33:07;;;;;;;1.40;1.40;;;;;;;18.28;34.74;96178.34;5045874;28;20095;-61
2021/04/25 06:35:33;;;;;;;1.50;1.40;;;;;;;18.28;34.69;96172.91;5044491;28;20106;-61
2021/04/25 06:37:58;;;;;;;1.50;1.40;;;;;;;18.28;34.91;96167.50;5024171;28;20060;-61
2021/04/25 06:40:24;;;;;;;2.45;1.50;;;;;;;18.28;34.85;96171.03;5024492;28;20049;-62
2021/04/25 06:42:49;;;;;;;1.30;1.30;;;;;;;18.29;35.13;96169.94;5025672;28;20045;-61
2021/04/25 06:45:19;;;;;;;1.60;1.50;;;;;;;18.30;34.86;96170.75;5044514;28;20139;-60
2021/04/25 06:47:45;;;;;;;1.30;1.30;;;;;;;18.30;35.21;96179.72;5044370;28;20399;-61
2021/04/25 06:50:12;;;;;;;1.60;1.50;;;;;;;18.31;34.76;96175.91;5045805;28;20057;-62
2021/04/25 06:52:42;;;;;;;1.40;1.30;;;;;;;18.31;35.04;96178.63;5045444;28;20130;-62
2021/04/25 06:55:08;;;;;;;1.48;1.38;;;;;;;18.32;34.87;96177.53;5044915;28;20072;-62
2021/04/25 06:57:34;;;;;;;1.60;1.58;;;;;;;18.32;34.93;96182.13;5043852;28;20049;-62
2021/04/25 06:59:59;;;;;;;1.10;1.10;;;;;;;18.32;34.89;96180.25;5044209;28;20051;-62
2021/04/25 07:02:25;;;;;;;1.33;1.33;;;;;;;18.32;34.84;96174.84;5043775;28;20508;-61
2021/04/25 07:04:51;;;;;;;1.63;1.40;;;;;;;18.34;35.20;96179.97;5043032;28;20092;-61
2021/04/25 07:07:17;;;;;;;1.60;1.60;;;;;;;18.34;35.40;96167.25;5043559;28;20049;-62
2021/04/25 07:09:43;;;;;;;1.30;1.30;;;;;;;18.34;35.16;96166.41;5047877;28;20141;-60
2021/04/25 07:12:08;;;;;;;1.60;1.50;;;;;;;18.36;35.11;96161.53;5031930;28;20041;-62
2021/04/25 07:14:34;;;;;;;1.67;1.58;;;;;;;18.37;35.36;96163.16;5048942;28;20142;-62
2021/04/25 07:16:59;;;;;;;1.33;1.33;;;;;;;18.37;35.22;96174.81;5047450;28;20516;-61
2021/04/25 07:19:25;;;;;;;1.40;1.40;;;;;;;18.38;35.54;96173.72;5048256;28;20053;-61
2021/04/25 07:21:51;;;;;;;1.40;1.40;;;;;;;18.39;35.47;96166.41;5048868;28;20087;-62
2021/04/25 07:24:16;;;;;;;1.63;1.55;;;;;;;18.39;35.26;96160.97;5048816;28;20045;-61
2021/04/25 07:26:42;;;;;;;1.42;1.33;;;;;;;18.40;35.24;96159.88;5047501;28;20143;-60
2021/04/25 07:29:08;;;;;;;1.48;1.48;;;;;;;18.39;35.49;96160.97;5031636;28;20552;-62
2021/04/25 07:31:33;;;;;;;1.30;1.30;;;;;;;18.39;35.20;96150.94;5046998;28;20047;-61
2021/04/25 07:33:59;;;;;;;1.35;1.35;;;;;;;18.41;35.36;96158.81;5048244;28;20068;-62
2021/04/25 07:36:28;;;;;;;1.50;1.40;;;;;;;18.41;35.35;96158.81;5046508;28;20049;-62
2021/04/25 07:38:53;;;;;;;1.40;1.30;;;;;;;18.41;35.48;96156.91;5029105;28;20241;-61
2021/04/25 07:41:19;;;;;;;1.25;1.25;;;;;;;18.42;35.42;96157.72;5030384;28;20455;-61
2021/04/25 07:43:45;;;;;;;1.45;1.35;;;;;;;18.42;35.28;96158.50;5042039;28;20086;-60
2021/04/25 07:46:10;;;;;;;2.92;1.48;;;;;;;18.43;35.31;96159.34;5027931;28;20069;-62
2021/04/25 07:48:36;;;;;;;1.80;1.70;;;;;;;18.44;35.48;96161.75;5027883;28;20045;-60
2021/04/25 07:51:02;;;;;;;2.30;2.10;;;;;;;18.46;35.90;96164.22;5028794;28;20371;-61
2021/04/25 07:53:28;;;;;;;2.67;2.50;;;;;;;18.50;35.62;96164.47;5027037;28;20123;-61
2021/04/25 07:55:53;;;;;;;2.40;2.20;;;;;;;18.51;36.00;96161.50;5027909;28;20049;-62
2021/04/25 07:58:19;;;;;;;2.45;2.33;;;;;;;18.51;35.70;96166.09;5028727;28;20045;-60
2021/04/25 08:00:45;;;;;;;2.80;2.28;;;;;;;18.52;35.89;96175.88;5028039;28;20156;-61
2021/04/25 08:03:10;;;;;;;2.50;2.40;;;;;;;18.52;35.75;96173.97;5046364;28;20059;-60
2021/04/25 08:05:36;;;;;;;2.05;1.95;;;;;;;18.54;35.76;96176.41;5046884;28;20041;-59
2021/04/25 08:08:02;;;;;;;2.30;2.10;;;;;;;18.55;36.08;96173.44;5012564;28;20137;-58
2021/04/25 08:10:27;;;;;;;3.67;2.42;;;;;;;18.55;35.69;96176.13;5029749;28;20160;-59
2021/04/25 08:12:53;;;;;;;2.30;2.10;;;;;;;18.57;35.67;96176.69;5047377;28;20218;-60
2021/04/25 08:15:21;;;;;;;2.55;2.35;;;;;;;18.59;35.91;96181.81;5048342;28;20503;-59
2021/04/25 08:17:46;;;;;;;3.42;2.63;;;;;;;18.59;35.96;96179.09;5048297;28;20040;-60
2021/04/25 08:20:12;;;;;;;3.53;2.65;;;;;;;18.61;35.85;96182.34;5028988;28;20039;-59
2021/04/25 08:22:38;;;;;;;4.80;2.72;;;;;;;18.60;36.29;96180.72;5049245;28;20082;-59
2021/04/25 08:25:04;;;;;;;3.08;2.80;;;;;;;18.60;36.17;96181.53;5048124;28;20053;-59
2021/04/25 08:27:30;;;;;;;2.85;2.65;;;;;;;18.59;36.34;96184.50;5048107;28;20056;-59
2021/04/25 08:29:55;;;;;;;3.28;2.83;;;;;;;18.63;36.56;96191.84;5047105;28;20041;-60
2021/04/25 08:32:21;;;;;;;2.75;2.55;;;;;;;18.66;36.44;96197.78;5046398;28;20136;-59
2021/04/25 08:34:47;;;;;;;2.97;2.58;;;;;;;18.67;36.54;96197.50;5029901;28;20053;-59
2021/04/25 08:37:12;;;;;;;3.50;2.90;;;;;;;18.70;36.52;96196.16;5044257;28;20103;-60
2021/04/25 08:39:38;;;;;;;2.97;2.78;;;;;;;18.71;36.19;96190.44;5048363;28;20053;-59
2021/04/25 08:42:04;;;;;;;2.65;2.45;;;;;;;18.73;36.48;96182.03;5046503;28;20401;-59
2021/04/25 08:44:29;;;;;;;3.72;2.70;;;;;;;18.73;36.45;96190.19;5033533;28;20417;-59
2021/04/25 08:46:55;;;;;;;2.60;2.40;;;;;;;18.75;36.43;96188.00;5010071;28;20061;-59
2021/04/25 08:49:25;;;;;;;2.78;2.65;;;;;;;18.76;36.58;96197.75;5032237;28;20048;-59
2021/04/25 08:51:50;;;;;;;2.83;2.60;;;;;;;18.79;36.52;96199.97;5046234;28;20722;-60
2021/04/25 08:54:16;;;;;;;4.63;2.40;;;;;;;18.79;36.33;96194.53;5047594;28;20083;-59
2021/04/25 08:56:45;;;;;;;5.10;2.70;;;;;;;18.82;36.45;96193.97;5047001;28;20045;-59
2021/04/25 08:59:10;;;;;;;4.05;2.95;;;;;;;18.83;36.13;96196.41;5046743;28;20449;-59
2021/04/25 09:01:36;;;;;;;3.30;2.38;;;;;;;18.85;36.35;96193.44;5029287;28;20047;-59
2021/04/25 09:04:02;;;;;;;5.43;2.80;;;;;;;18.86;36.10;96197.75;5044505;28;20263;-60
2021/04/25 09:06:27;;;;;;;3.45;2.22;;;;;;;18.89;35.96;96199.13;5046022;28;20466;-59
2021/04/25 09:08:57;;;;;;;4.13;2.58;;;;;;;18.91;36.17;96195.03;5046586;28;20095;-59
2021/04/25 09:11:26;;;;;;;2.63;2.42;;;;;;;18.93;36.07;96201.00;5030021;28;20053;-61
2021/04/25 09:14:17;;;;;;;2.90;2.70;;;;;;;18.95;35.94;96193.41;5045528;28;20503;-59
2021/04/25 09:17:01;;;;;;;2.90;2.50;;;;;;;18.96;35.86;96195.00;5045977;28;20140;-59
2021/04/25 09:19:49;;;;;;;3.15;2.83;;;;;;;18.97;35.90;96191.22;5027776;28;20523;-62
2021/04/25 09:22:15;;;;;;;4.80;3.22;;;;;;;19.00;35.24;96193.34;5046101;28;20045;-62
2021/04/25 09:24:41;;;;;;;7.40;4.88;;;;;;;19.01;35.04;96186.84;5045769;28;20041;-62
2021/04/25 09:27:06;;;;;;;4.32;3.85;;;;;;;19.04;35.18;96186.28;5028236;28;20080;-62
2021/04/25 09:29:52;;;;;;;5.38;4.70;;;;;;;19.04;35.07;96186.28;5044918;28;20517;-62
2021/04/25 09:32:21;;;;;;;5.10;3.97;;;;;;;19.07;34.84;96181.38;5043812;28;20522;-62
2021/04/25 09:34:47;;;;;;;4.28;3.78;;;;;;;19.10;34.92;96186.28;5044349;28;20504;-62
2021/04/25 09:37:17;;;;;;;4.88;4.38;;;;;;;19.12;35.05;96181.38;5044464;28;20056;-63
2021/04/25 09:40:12;;;;;;;3.72;3.42;;;;;;;19.12;34.99;96186.81;5027206;28;20049;-64
2021/04/25 09:43:02;;;;;;;3.80;3.47;;;;;;;19.15;34.87;96191.66;5028760;28;20057;-62
2021/04/25 09:45:30;;;;;;;3.97;3.63;;;;;;;19.17;34.85;96190.28;5034054;28;20291;-62
2021/04/25 09:47:56;;;;;;;4.32;3.92;;;;;;;19.20;34.89;96194.34;5043363;28;20052;-62
2021/04/25 09:50:22;;;;;;;4.00;3.65;;;;;;;19.22;34.64;96198.44;5043143;28;20052;-62
2021/04/25 09:52:51;;;;;;;4.13;3.53;;;;;;;19.24;34.66;96200.84;5043231;28;20049;-62
2021/04/25 09:55:27;;;;;;;3.60;3.30;;;;;;;19.26;34.43;96200.56;5043959;28;20574;-61
2021/04/25 09:58:04;;;;;;;3.75;3.45;;;;;;;19.28;34.63;96207.34;5036441;28;20466;-62
2021/04/25 10:00:40;;;;;;;3.38;3.08;;;;;;;19.30;34.42;96202.44;5024099;28;20056;-62
2021/04/25 10:03:09;;;;;;;3.90;3.53;;;;;;;19.33;34.30;96195.66;5044824;28;20037;-62
2021/04/25 10:05:35;;;;;;;3.45;3.17;;;;;;;19.34;34.65;96195.38;5027996;28;20547;-62
2021/04/25 10:08:01;;;;;;;3.33;3.03;;;;;;;19.36;34.76;96200.53;5043659;28;20052;-62
2021/04/25 10:10:26;;;;;;;3.10;2.90;;;;;;;19.39;34.66;96203.50;5026989;28;20049;-63
2021/04/25 10:12:52;;;;;;;4.10;3.20;;;;;;;19.41;34.50;96206.75;5043971;28;20045;-63
2021/04/25 10:15:18;;;;;;;3.60;3.30;;;;;;;19.44;34.48;96205.38;5045055;28;20524;-63
2021/04/25 10:17:45;;;;;;;3.20;3.00;;;;;;;19.48;34.48;96205.63;5043347;28;20112;-64
2021/04/25 10:20:11;;;;;;;3.30;3.08;;;;;;;19.49;34.51;96202.59;5044257;28;20101;-62
2021/04/25 10:22:39;;;;;;;5.80;4.18;;;;;;;19.52;34.50;96204.78;5026447;28;20072;-63
2021/04/25 10:25:06;;;;;;;4.47;3.95;;;;;;;19.55;34.54;96206.91;5026187;28;20049;-63
2021/04/25 10:27:34;;;;;;;4.18;3.80;;;;;;;19.57;34.63;96202.00;5043380;28;20603;-63
2021/04/25 10:30:03;;;;;;;4.18;3.88;;;;;;;19.60;34.45;96206.09;5044236;28;20052;-63
2021/04/25 10:32:28;;;;;;;4.40;4.00;;;;;;;19.61;34.36;96196.84;5025728;28;20808;-62
2021/04/25 10:35:15;;;;;;;4.30;3.42;;;;;;;19.63;34.44;96200.88;5026857;28;20105;-62
2021/04/25 10:37:41;;;;;;;3.97;3.47;;;;;;;19.66;34.35;96199.53;5024469;28;20487;-62
2021/04/25 10:40:33;;;;;;;3.80;3.22;;;;;;;19.67;34.25;96193.00;5006964;28;20088;-62
2021/04/25 10:43:04;;;;;;;3.42;3.10;;;;;;;19.70;34.25;96186.19;5026936;28;20106;-62
2021/04/25 10:45:33;;;;;;;3.78;3.05;;;;;;;19.71;34.08;96177.78;5022652;28;20127;-63
2021/04/25 10:48:18;;;;;;;4.45;3.42;;;;;;;19.73;34.43;96172.88;5024093;28;20143;-63
2021/04/25 10:50:44;;;;;;;3.60;3.30;;;;;;;19.77;34.10;96167.69;5041850;28;20452;-63
2021/04/25 10:53:37;;;;;;;3.80;3.50;;;;;;;19.77;33.94;96168.50;5027800;28;20096;-62
2021/04/25 10:56:14;;;;;;;3.65;3.25;;;;;;;19.81;33.96;96171.47;5042380;28;20045;-62
2021/04/25 10:58:45;;;;;;;4.88;3.17;;;;;;;19.84;34.09;96165.44;5042180;28;20057;-63
2021/04/25 11:01:39;;;;;;;4.57;3.33;;;;;;;19.87;34.08;96172.22;5043658;28;20053;-62
2021/04/25 11:04:05;;;;;;;5.25;3.30;;;;;;;19.89;34.00;96164.59;5044297;28;20500;-62
2021/04/25 11:06:30;;;;;;;4.07;2.80;;;;;;;19.93;33.84;96171.09;5042623;28;20063;-62
2021/04/25 11:08:56;;;;;;;3.30;3.10;;;;;;;19.96;33.99;96162.38;5042671;28;20780;-62
2021/04/25 11:11:39;;;;;;;3.47;2.97;;;;;;;19.98;33.69;96152.03;5043961;28;20041;-62
2021/04/25 11:14:05;;;;;;;3.88;3.35;;;;;;;20.02;33.74;96148.44;5041053;28;20049;-62
2021/04/25 11:16:35;;;;;;;4.30;3.22;;;;;;;20.04;33.58;96145.44;5022771;28;20053;-63
2021/04/25 11:19:09;;;;;;;3.53;2.63;;;;;;;20.08;33.59;96143.78;5023032;28;20140;-61
2021/04/25 11:21:53;;;;;;;4.00;3.23;;;;;;;20.10;33.69;96141.59;5024248;28;20420;-62
2021/04/25 11:24:31;;;;;;;3.88;2.60;;;;;;;20.12;33.76;96135.84;5021383;28;20049;-62
2021/04/25 11:26:59;;;;;;;3.63;2.88;;;;;;;20.15;33.81;96130.66;5026318;28;20337;-62
2021/04/25 11:29:28;;;;;;;3.78;2.80;;;;;;;20.19;33.80;96128.19;5026492;28;20494;-63
2021/04/25 11:31:57;;;;;;;3.10;2.88;;;;;;;20.20;33.41;96119.75;5044449;28;20439;-62
2021/04/25 11:34:23;;;;;;;3.05;2.85;;;;;;;20.25;33.71;96116.16;5043291;28;20113;-61